Accueil
METAR-TAF:

METAR-TAF

Aéroports :

Benson, Angleterre

latitude: 51-37N, longitude: 001-05W, altitude: 63 m

Observation

Le bulletin a été fait il y a 1 heure et 2 minutes, à 06:50 UTC
Vent 4 kt de ouest/sud-ouest
Température 9°C
Humidité 93%
Pression 1031 hPa
Visibilité 10 km ou plus
Ciel couvert à une hauteur de 1000 ft

METAR: EGUB 200650Z 24004KT 9999 OVC010 09/08 Q1031 GRN NOSIG

Heure: 07:52 (07:52 UTC)

Prévision

Le bulletin a été fait il y a 58 minutes, à 06:54 UTC
Prévision valable du 20 à 07 UTC au 20 à 15 UTC
Vent 4 kt de sud-ouest
Visibilité 10 km ou plus
Nuages fragmentés à une hauteur de 1000 ft
Evoluant progressivement
du 20 à 09 UTC au 20 à 12 UTC
Nuages fragmentés à une hauteur de 1800 ft
Evoluant progressivement
du 20 à 13 UTC au 20 à 15 UTC
Nuages épars à une hauteur de 2600 ft

TAF: EGUB 200654Z 2007/2015 23004KT 9999 BKN010 BECMG 2009/2012 BKN018 BECMG 2013/2015 SCT026

Observations et prévisions météorologiques de plus de 4000 aéroports (messages METAR et TAF).

Les stations disponibles sont représentées par des disques jaunes et rouges sur la carte.

Passer la souris dessus pour voir le nom de la station.

Cliquer dessus pour voir les observations et prévisions météorologiques.

Pour changer de carte: cliquez sur les boutons verts avec une croix noire pour zoomer, sur le bouton vert avec un tiret pour effectuer un zoom arrière, ou sur les flèches vertes pour les cartes adjacentes.


METAR-TAF: